createdAt,value
2018-07-01T00:00:59.399Z,54.6
2018-07-01T00:02:08.921Z,53.36
2018-07-01T00:03:18.732Z,53.55
2018-07-01T00:04:28.812Z,53.45
2018-07-01T00:05:38.607Z,54.22
2018-07-01T00:06:48.715Z,54.41
2018-07-01T00:07:58.517Z,55.72
2018-07-01T00:09:08.310Z,56.29
2018-07-01T00:10:18.370Z,56.58
2018-07-01T00:11:28.170Z,56.67
2018-07-01T00:12:38.286Z,56.2
2018-07-01T00:13:48.377Z,55.72
2018-07-01T00:14:58.183Z,55.53
2018-07-01T00:16:07.715Z,55.34
2018-07-01T00:17:17.628Z,56.01
2018-07-01T00:18:27.473Z,56.2
2018-07-01T00:19:37.267Z,56.58
2018-07-01T00:20:47.333Z,57.43
2018-07-01T00:21:57.406Z,58.58
2018-07-01T00:23:07.226Z,58.36
2018-07-01T00:24:16.546Z,58.65
2018-07-01T00:25:26.338Z,58.55
2018-07-01T00:26:36.141Z,57.89
2018-07-01T00:27:45.928Z,58.46
2018-07-01T00:28:55.729Z,58.55
2018-07-01T00:30:05.331Z,59.22
2018-07-01T00:31:15.113Z,60.17
2018-07-01T00:32:25.172Z,59.7
2018-07-01T00:33:35.254Z,60.08
2018-07-01T00:34:45.049Z,59.99
2018-07-01T00:35:55.182Z,60.17
2018-07-01T00:37:05.275Z,60.94
2018-07-01T00:38:15.354Z,61
2018-07-01T00:39:25.439Z,61.1
2018-07-01T00:40:35.245Z,61.67
2018-07-01T00:41:45.083Z,60.33
2018-07-01T00:42:55.157Z,60.81
2018-07-01T00:44:04.415Z,59.86
2018-07-01T00:45:14.472Z,59.95
2018-07-01T00:46:24.530Z,60.14
2018-07-01T00:47:34.636Z,60.62
2018-07-01T00:48:44.427Z,61.19
2018-07-01T00:49:53.956Z,61.96
2018-07-01T00:51:04.026Z,61.38
2018-07-01T00:52:13.820Z,61.86
2018-07-01T00:53:23.919Z,61.96
2018-07-01T00:54:33.770Z,61.96
2018-07-01T00:55:43.555Z,61.57
2018-07-01T00:56:53.619Z,60.62
2018-07-01T00:58:03.403Z,60.43
2018-07-01T00:59:12.968Z,60.52
2018-07-01T01:00:22.778Z,60.72
2018-07-01T01:01:32.561Z,61.19
2018-07-01T01:02:42.359Z,61.1
2018-07-01T01:03:51.896Z,61.86
2018-07-01T01:05:01.747Z,61.67
2018-07-01T01:06:11.551Z,61.67
2018-07-01T01:07:21.614Z,63
2018-07-01T01:08:31.679Z,63.67
2018-07-01T01:09:41.472Z,63.57
2018-07-01T01:10:51.602Z,64.05
2018-07-01T01:12:01.671Z,64.12
2018-07-01T01:13:11.460Z,65.07
2018-07-01T01:14:20.720Z,64.21
2018-07-01T01:15:30.812Z,64.5
2018-07-01T01:16:40.651Z,65.26
2018-07-01T01:17:50.456Z,64.87
2018-07-01T01:19:00.542Z,64.87
2018-07-01T01:20:10.352Z,64.12
2018-07-01T01:21:20.441Z,62.3
2018-07-01T01:22:30.293Z,62.12
2018-07-01T01:23:40.349Z,61.73
2018-07-01T01:24:50.426Z,61.73
2018-07-01T01:25:59.944Z,63.83
2018-07-01T01:27:09.740Z,61.64
2018-07-01T01:28:19.851Z,60.4
2018-07-01T01:29:29.631Z,59.86
2018-07-01T01:30:39.151Z,59.38
2018-07-01T01:31:48.675Z,59.09
2018-07-01T01:32:58.758Z,59.19
2018-07-01T01:34:08.346Z,58.52
2018-07-01T01:35:18.133Z,58.43
2018-07-01T01:36:27.912Z,58.52
2018-07-01T01:37:37.984Z,57.09
2018-07-01T01:38:48.046Z,57.48
2018-07-01T01:39:58.176Z,57.12
2018-07-01T01:41:08.238Z,57.6
2018-07-01T01:42:18.034Z,58.46
2018-07-01T01:43:27.548Z,57.89
2018-07-01T01:44:37.612Z,57.5
2018-07-01T01:45:47.463Z,58.84
2018-07-01T01:46:57.549Z,59.89
2018-07-01T01:48:07.351Z,61.8
2018-07-01T01:49:17.193Z,62.75
2018-07-01T01:50:26.988Z,61.7
2018-07-01T01:51:37.103Z,59.79
2018-07-01T01:52:47.153Z,59.28
2018-07-01T01:53:57.216Z,60.33
2018-07-01T01:55:07.030Z,59.03
2018-07-01T01:56:17.093Z,58.24
2018-07-01T01:57:26.945Z,59.03
2018-07-01T01:58:36.461Z,59.22
2018-07-01T01:59:45.978Z,59.95
2018-07-01T02:00:55.779Z,59.67
2018-07-01T02:02:05.563Z,60.33
2018-07-01T02:03:15.691Z,60.24
2018-07-01T02:04:25.752Z,59.57
2018-07-01T02:05:35.832Z,60.14
2018-07-01T02:06:45.682Z,60.33
2018-07-01T02:07:55.732Z,60.72
2018-07-01T02:09:05.846Z,61.1
2018-07-01T02:10:15.640Z,61.76
2018-07-01T02:11:25.692Z,62.52
2018-07-01T02:12:35.483Z,62.62
2018-07-01T02:13:45.541Z,63.48
2018-07-01T02:14:55.671Z,63.57
2018-07-01T02:16:05.191Z,62.81
2018-07-01T02:17:15.064Z,62.91
2018-07-01T02:18:24.863Z,62.72
2018-07-01T02:19:34.647Z,63.57
2018-07-01T02:20:44.756Z,63.96
2018-07-01T02:21:54.544Z,63.67
2018-07-01T02:23:04.340Z,63.96
2018-07-01T02:24:14.419Z,63.96
2018-07-01T02:25:24.214Z,64.62
2018-07-01T02:26:33.767Z,64.34
2018-07-01T02:27:43.814Z,64.43
2018-07-01T02:28:53.890Z,64.91
2018-07-01T02:30:03.956Z,64.62
2018-07-01T02:31:14.042Z,65.67
2018-07-01T02:32:23.892Z,65.1
2018-07-01T02:33:33.716Z,65.64
2018-07-01T02:34:43.773Z,65.1
2018-07-01T02:35:53.829Z,65.26
2018-07-01T02:37:03.356Z,64.97
2018-07-01T02:38:13.484Z,64.87
2018-07-01T02:39:23.547Z,64.34
2018-07-01T02:40:32.794Z,64.62
2018-07-01T02:41:42.871Z,65.2
2018-07-01T02:42:52.965Z,65
2018-07-01T02:44:03.077Z,65.64
2018-07-01T02:45:13.124Z,66.02
2018-07-01T02:46:22.930Z,65.92
2018-07-01T02:47:32.744Z,66.11
2018-07-01T02:48:42.541Z,65.92
2018-07-01T02:49:52.658Z,65.45
2018-07-01T02:51:02.466Z,65.73
2018-07-01T02:52:12.262Z,66.31
2018-07-01T02:53:22.365Z,66.78
2018-07-01T02:54:32.162Z,66.88
2018-07-01T02:55:42.268Z,66.31
2018-07-01T02:56:52.066Z,66.31
2018-07-01T02:58:01.862Z,66.11
2018-07-01T02:59:11.689Z,65.45
2018-07-01T03:04:33.383Z,64.69
2018-07-01T03:05:43.468Z,64.69
2018-07-01T03:06:53.552Z,65.36
2018-07-01T03:08:03.362Z,66.69
2018-07-01T03:09:13.202Z,67.07
2018-07-01T03:10:23.002Z,66.69
2018-07-01T03:11:32.793Z,65.26
2018-07-01T03:12:42.603Z,65.07
2018-07-01T03:13:52.417Z,66.02
2018-07-01T03:15:02.280Z,66.02
2018-07-01T03:16:12.342Z,66.4
2018-07-01T03:17:22.157Z,67.35
2018-07-01T03:18:31.960Z,67.45
2018-07-01T03:19:41.218Z,67.83
2018-07-01T03:20:50.799Z,68.02
2018-07-01T03:22:00.872Z,68.59
2018-07-01T03:23:10.406Z,67.26
2018-07-01T03:24:20.216Z,67.45
2018-07-01T03:25:29.737Z,66.78
2018-07-01T03:26:39.861Z,66.97
2018-07-01T03:27:49.924Z,68.05
2018-07-01T03:28:59.448Z,67.2
2018-07-01T03:30:09.004Z,67.2
2018-07-01T03:31:18.543Z,66.63
2018-07-01T03:32:28.394Z,67.96
2018-07-01T03:33:38.457Z,68.63
2018-07-01T03:34:48.261Z,69.77
2018-07-01T03:35:58.328Z,69.48
2018-07-01T03:37:08.408Z,69.96
2018-07-01T03:38:18.527Z,70.44
2018-07-01T03:39:28.315Z,70.06
2018-07-01T03:40:38.383Z,70.44
2018-07-01T03:41:48.445Z,69.68
2018-07-01T03:42:58.516Z,70.63
2018-07-01T03:44:07.811Z,70.34
2018-07-01T03:45:17.341Z,69.96
2018-07-01T03:46:27.394Z,69.48
2018-07-01T03:47:37.441Z,69.2
2018-07-01T03:48:46.974Z,68.91
2018-07-01T03:49:56.830Z,68.53
2018-07-01T03:51:06.680Z,67.96
2018-07-01T03:52:16.755Z,67.29
2018-07-01T03:53:26.805Z,67.2
2018-07-01T03:54:36.870Z,67.1
2018-07-01T03:55:46.450Z,67
2018-07-01T03:56:56.495Z,67.29
2018-07-01T03:58:06.576Z,67.2
2018-07-01T03:59:16.651Z,67.23
2018-07-01T04:00:26.591Z,66.75
2018-07-01T04:01:36.300Z,66.94
2018-07-01T04:02:46.125Z,66.75
2018-07-01T04:03:56.192Z,67.23
2018-07-01T04:05:05.719Z,67.33
2018-07-01T04:06:15.788Z,67.52
2018-07-01T04:07:25.925Z,67.14
2018-07-01T04:08:35.997Z,67.42
2018-07-01T04:09:46.097Z,66.94
2018-07-01T04:10:55.892Z,67.04
2018-07-01T04:12:05.951Z,67.33
2018-07-01T04:13:15.522Z,67.23
2018-07-01T04:14:25.613Z,66.94
2018-07-01T04:15:35.411Z,67.61
2018-07-01T04:16:45.220Z,67.23
2018-07-01T04:17:55.285Z,67.23
2018-07-01T04:19:04.858Z,67.42
2018-07-01T04:20:14.636Z,67.99
2018-07-01T04:21:24.432Z,67.42
2018-07-01T04:22:33.691Z,67.23
2018-07-01T04:23:43.485Z,66.88
2018-07-01T04:24:53.063Z,66.69
2018-07-01T04:26:03.152Z,67.17
2018-07-01T04:27:12.981Z,66.6
2018-07-01T04:28:22.766Z,66.6
2018-07-01T04:29:32.828Z,67.07
2018-07-01T04:30:42.665Z,66.98
2018-07-01T04:31:52.732Z,66.98
2018-07-01T04:33:01.995Z,66.88
2018-07-01T04:34:12.056Z,67.36
2018-07-01T04:35:21.858Z,67.46
2018-07-01T04:36:31.977Z,67.93
2018-07-01T04:37:41.777Z,67.93
2018-07-01T04:38:51.855Z,67.83
2018-07-01T04:40:01.651Z,68.03
2018-07-01T04:41:11.186Z,67.46
2018-07-01T04:42:21.315Z,68.22
2018-07-01T04:43:31.434Z,67.74
2018-07-01T04:44:41.504Z,67.55
2018-07-01T04:45:51.327Z,67.4
2018-07-01T04:47:01.452Z,67.3
2018-07-01T04:48:11.298Z,67.3
2018-07-01T04:49:21.517Z,66.82
2018-07-01T04:50:31.646Z,67.3
2018-07-01T04:51:41.696Z,67.21
2018-07-01T04:52:50.942Z,68.06
2018-07-01T04:54:00.779Z,68.06
2018-07-01T04:55:10.740Z,67.77
2018-07-01T04:56:21.309Z,68.26
2018-07-01T04:57:31.117Z,67.3
2018-07-01T04:58:41.189Z,66.63
2018-07-01T04:59:51.038Z,66.25
2018-07-01T05:01:00.829Z,66.35
2018-07-01T05:02:10.484Z,66.63
2018-07-01T05:03:20.909Z,67.11
2018-07-01T05:04:30.989Z,66.72
2018-07-01T05:05:40.829Z,66
2018-07-01T05:06:50.630Z,65.61
2018-07-01T05:08:00.704Z,66
2018-07-01T05:09:10.509Z,64.85
2018-07-01T05:10:20.582Z,65.04
2018-07-01T05:11:30.431Z,65.23
2018-07-01T05:12:39.970Z,65.14
2018-07-01T05:13:50.054Z,65.33
2018-07-01T05:15:00.115Z,65.23
2018-07-01T05:16:09.645Z,65.04
2018-07-01T05:17:19.511Z,64.85
2018-07-01T05:18:29.319Z,65.14
2018-07-01T05:19:39.402Z,65.17
2018-07-01T05:20:49.471Z,64.94
2018-07-01T05:21:59.542Z,64.75
2018-07-01T05:23:09.654Z,65.14
2018-07-01T05:24:19.717Z,67.14
2018-07-01T05:25:29.568Z,66.66
2018-07-01T05:26:39.366Z,66.47
2018-07-01T05:27:49.461Z,67.43
2018-07-01T05:28:59.318Z,69.72
2018-07-01T05:30:08.849Z,70.48
2018-07-01T05:31:18.389Z,70.96
2018-07-01T05:32:27.931Z,71.02
2018-07-01T05:33:37.728Z,70.39
2018-07-01T05:34:47.730Z,69.82
2018-07-01T05:35:57.804Z,69.82
2018-07-01T05:37:07.906Z,69.34
2018-07-01T05:38:17.958Z,69.34
2018-07-01T05:39:27.216Z,71.25
2018-07-01T05:40:37.327Z,71.82
2018-07-01T05:41:47.423Z,70.39
2018-07-01T05:42:57.480Z,69.82
2018-07-01T05:44:07.541Z,69.72
2018-07-01T05:45:17.345Z,68.82
2018-07-01T05:46:27.462Z,69.21
2018-07-01T05:47:37.268Z,68.26
2018-07-01T05:48:46.532Z,67.71
2018-07-01T05:49:56.628Z,68.29
2018-07-01T05:51:06.704Z,69.31
2018-07-01T05:52:16.266Z,68.63
2018-07-01T05:53:26.320Z,69.91
2018-07-01T05:54:35.862Z,70.73
2018-07-01T05:55:45.643Z,70.73
2018-07-01T05:56:55.442Z,69.87
2018-07-01T05:58:05.676Z,70.1
2018-07-01T05:59:15.200Z,70.16
2018-07-01T06:00:25.312Z,69.53
2018-07-01T06:01:35.393Z,70.2
2018-07-01T06:02:45.442Z,69.62
2018-07-01T06:03:55.563Z,70.01
2018-07-01T06:05:05.347Z,69.82
2018-07-01T06:06:15.426Z,70.01
2018-07-01T06:07:25.284Z,69.82
2018-07-01T06:08:35.156Z,69.82
2018-07-01T06:09:45.421Z,69.34
2018-07-01T06:10:55.477Z,69.82
2018-07-01T06:12:05.550Z,69.34
2018-07-01T06:13:15.353Z,69.34
2018-07-01T06:14:25.142Z,70.1
2018-07-01T06:15:34.989Z,69.91
2018-07-01T06:16:44.925Z,69.24
2018-07-01T06:17:55.124Z,69.82
2018-07-01T06:19:04.683Z,70.14
2018-07-01T06:20:14.765Z,69.62
2018-07-01T06:21:24.901Z,70.39
2018-07-01T06:22:34.958Z,69.82
2018-07-01T06:23:45.033Z,69.72
2018-07-01T06:24:55.115Z,69.82
2018-07-01T06:26:04.371Z,68.76
2018-07-01T06:27:13.952Z,69.47
2018-07-01T06:28:24.026Z,68.67
2018-07-01T06:29:33.829Z,69.27
2018-07-01T06:30:43.606Z,67.52
2018-07-01T06:31:53.667Z,67.33
2018-07-01T06:33:03.513Z,68.96
2018-07-01T06:34:13.321Z,68.51
2018-07-01T06:35:23.403Z,68.67
2018-07-01T06:36:45.951Z,68.51
2018-07-01T06:37:56.115Z,68.32
2018-07-01T06:39:06.534Z,68.8
2018-07-01T06:40:16.525Z,68.9
2018-07-01T06:41:26.320Z,68.7
2018-07-01T06:42:35.838Z,68.9
2018-07-01T06:43:45.416Z,68.23
2018-07-01T06:44:55.219Z,68.04
2018-07-01T06:46:04.748Z,67.27
2018-07-01T06:47:14.559Z,68.23
2018-07-01T06:48:24.624Z,68.64
2018-07-01T06:49:34.092Z,67.36
2018-07-01T06:50:43.627Z,66.73
2018-07-01T06:51:53.702Z,66.73
2018-07-01T06:53:03.764Z,66.44
2018-07-01T06:54:13.565Z,65.2
2018-07-01T06:55:23.688Z,65.01
2018-07-01T06:56:33.395Z,64.95
2018-07-01T06:57:43.239Z,64.95
2018-07-01T06:58:53.327Z,64.56
2018-07-01T07:00:03.392Z,65.04
2018-07-01T07:01:13.253Z,64.37
2018-07-01T07:02:23.128Z,64.12
2018-07-01T07:03:33.485Z,63.26
2018-07-01T07:04:43.571Z,63.83
2018-07-01T07:05:53.642Z,63.73
2018-07-01T07:07:03.494Z,63.35
2018-07-01T07:08:13.305Z,62.97
2018-07-01T07:09:23.371Z,62.77
2018-07-01T07:10:33.188Z,62.49
2018-07-01T07:11:43.262Z,62.2
2018-07-01T07:12:53.379Z,62.23
2018-07-01T07:14:03.447Z,62.62
2018-07-01T07:15:13.527Z,62.43
2018-07-01T07:16:23.818Z,62.71
2018-07-01T07:17:33.972Z,63.86
2018-07-01T07:18:43.565Z,64.05
2018-07-01T07:19:52.846Z,63.1
2018-07-01T07:21:02.624Z,63.48
2018-07-01T07:22:12.703Z,61.85
2018-07-01T07:23:22.506Z,62.43
2018-07-01T07:24:32.707Z,62.9
2018-07-01T07:25:42.994Z,62.74
2018-07-01T07:26:52.798Z,62.36
2018-07-01T07:28:02.873Z,61.98
2018-07-01T07:29:12.950Z,61.79
2018-07-01T07:30:23.073Z,61.6
2018-07-01T07:31:33.141Z,62.74
2018-07-01T07:32:42.674Z,61.69
2018-07-01T07:33:52.749Z,61.79
2018-07-01T07:35:02.820Z,61.98
2018-07-01T07:36:12.933Z,61.6
2018-07-01T07:37:23.004Z,62.17
2018-07-01T07:38:33.070Z,61.15
2018-07-01T07:39:42.874Z,60.67
2018-07-01T07:40:52.960Z,59.42
2018-07-01T07:42:02.814Z,59.52
2018-07-01T07:43:12.890Z,59.13
2018-07-01T07:44:22.696Z,59.04
2018-07-01T07:45:32.780Z,57.7
2018-07-01T07:46:42.570Z,57.89
2018-07-01T07:47:52.695Z,58.17
2018-07-01T07:49:02.753Z,57.21
2018-07-01T07:50:12.815Z,57.34
2018-07-01T07:51:22.879Z,57.15
2018-07-01T07:52:32.958Z,56.76
2018-07-01T07:53:42.803Z,57.92
2018-07-01T07:54:52.606Z,57.82
2018-07-01T07:56:01.873Z,56.19
2018-07-01T07:57:11.944Z,56.48
2018-07-01T07:58:21.485Z,56.86
2018-07-01T07:59:31.054Z,55.71
2018-07-01T08:00:41.116Z,55.64
2018-07-01T08:01:51.198Z,56.09
2018-07-01T08:03:01.131Z,56.79
2018-07-01T08:04:10.936Z,56.7
2018-07-01T08:05:20.796Z,56.31
2018-07-01T08:06:30.871Z,56.31
2018-07-01T08:07:40.408Z,55.45
2018-07-01T08:08:50.478Z,55.16
2018-07-01T08:10:00.591Z,54.39
2018-07-01T08:11:10.731Z,55.16
2018-07-01T08:12:20.794Z,54.58
2018-07-01T08:13:30.593Z,54.11
2018-07-01T08:14:40.404Z,54.61
2018-07-01T08:15:50.207Z,54.52
2018-07-01T08:17:00.064Z,55
2018-07-01T08:18:09.870Z,54.04
2018-07-01T08:19:19.942Z,53.85
2018-07-01T08:20:30.019Z,54.33
2018-07-01T08:21:39.807Z,54.42
2018-07-01T08:22:49.671Z,54.8
2018-07-01T08:23:59.211Z,54.8
2018-07-01T08:25:09.016Z,54.13
2018-07-01T08:26:18.824Z,53.58
2018-07-01T08:27:28.912Z,52.62
2018-07-01T08:28:39.045Z,52.81
2018-07-01T08:29:48.857Z,52.14
2018-07-01T08:30:58.943Z,51.95
2018-07-01T08:32:08.744Z,52.62
2018-07-01T08:33:18.817Z,51.67
2018-07-01T08:34:29.017Z,51.09
2018-07-01T08:35:39.292Z,52.14
2018-07-01T08:36:48.818Z,51.95
2018-07-01T08:37:58.885Z,51.67
2018-07-01T08:39:08.432Z,52.14
2018-07-01T08:40:18.773Z,51.57
2018-07-01T08:41:28.711Z,51.02
2018-07-01T08:42:38.536Z,51.02
2018-07-01T08:43:48.600Z,50.82
2018-07-01T08:44:58.682Z,51.5
2018-07-01T08:46:08.821Z,50.92
2018-07-01T08:47:18.670Z,50.92
2018-07-01T08:48:28.477Z,49.67
2018-07-01T08:49:38.545Z,49.22
2018-07-01T08:50:48.369Z,49.6
2018-07-01T08:51:58.504Z,49.51
2018-07-01T08:53:08.584Z,50.18
2018-07-01T08:54:18.126Z,49.99
2018-07-01T08:55:27.931Z,50.76
2018-07-01T08:56:38.003Z,50.56
2018-07-01T08:57:47.315Z,50.66
2018-07-01T08:58:57.555Z,49.99
2018-07-01T09:00:07.370Z,49.99
2018-07-01T09:01:17.153Z,49.6
2018-07-01T09:02:27.222Z,50.01
2018-07-01T09:03:37.067Z,49.63
2018-07-01T09:04:47.139Z,49.72
2018-07-01T09:05:56.667Z,49.63
2018-07-01T09:07:06.200Z,49.63
2018-07-01T09:08:16.004Z,49.24
2018-07-01T09:09:26.124Z,49.91
2018-07-01T09:10:35.914Z,49.63
2018-07-01T09:11:45.980Z,49.15
2018-07-01T09:12:55.782Z,47.44
2018-07-01T09:14:05.853Z,48.4
2018-07-01T09:15:15.714Z,48.3
2018-07-01T09:16:25.515Z,48.28
2018-07-01T09:17:35.319Z,47.05
2018-07-01T09:18:45.392Z,46.38
2018-07-01T09:19:54.931Z,48.02
2018-07-01T09:21:04.514Z,47.92
2018-07-01T09:22:14.056Z,47.72
2018-07-01T09:23:24.222Z,46.86
2018-07-01T09:24:34.424Z,46.67
2018-07-01T09:25:44.221Z,45.8
2018-07-01T09:26:53.797Z,46.28
2018-07-01T09:28:03.603Z,46.95
2018-07-01T09:29:13.414Z,46.38
2018-07-01T09:30:23.501Z,45.25
2018-07-01T09:31:33.038Z,45.34
2018-07-01T09:32:42.612Z,44.48
2018-07-01T09:33:52.675Z,44.57
2018-07-01T09:35:01.953Z,44.86
2018-07-01T09:36:12.057Z,44.38
2018-07-01T09:37:21.323Z,44.19
2018-07-01T09:38:30.925Z,44.19
2018-07-01T09:39:40.992Z,44.57
2018-07-01T09:40:50.789Z,43.82
2018-07-01T09:42:00.864Z,42.96
2018-07-01T09:43:10.947Z,43.41
2018-07-01T09:44:20.335Z,43.44
2018-07-01T09:45:30.468Z,42.96
2018-07-01T09:46:40.540Z,42.57
2018-07-01T09:47:50.331Z,42.47
2018-07-01T09:49:00.138Z,41.8
2018-07-01T09:50:10.020Z,42.09
2018-07-01T09:51:19.881Z,41.61
2018-07-01T09:52:29.426Z,42.38
2018-07-01T09:53:39.239Z,42.3
2018-07-01T09:54:49.044Z,42.21
2018-07-01T09:55:59.226Z,42.3
2018-07-01T09:57:08.474Z,41.24
2018-07-01T09:58:18.557Z,40.66
2018-07-01T09:59:28.638Z,40.28
2018-07-01T10:00:38.710Z,40.57
2018-07-01T10:01:48.567Z,40.66
2018-07-01T10:02:58.628Z,40.57
2018-07-01T10:04:08.427Z,41.92
2018-07-01T10:05:18.230Z,41.14
2018-07-01T10:06:28.305Z,41.36
2018-07-01T10:07:38.417Z,40.97
2018-07-01T10:08:48.501Z,40.97
2018-07-01T10:09:58.565Z,39.34
2018-07-01T10:11:08.375Z,38.28
2018-07-01T10:12:18.173Z,37.23
2018-07-01T10:13:28.289Z,36.94
2018-07-01T10:14:38.376Z,38.1
2018-07-01T10:15:48.190Z,37.62
2018-07-01T10:16:58.328Z,37.91
2018-07-01T10:18:08.428Z,38.58
2018-07-01T10:19:18.267Z,38.49
2018-07-01T10:20:28.353Z,36.85
2018-07-01T10:21:38.436Z,36.17
2018-07-01T10:22:47.976Z,36.75
2018-07-01T10:23:58.036Z,38.49
2018-07-01T10:25:07.344Z,38.29
2018-07-01T10:26:17.423Z,37.23
2018-07-01T10:27:27.280Z,37.25
2018-07-01T10:28:37.373Z,36
2018-07-01T10:29:47.445Z,37.54
2018-07-01T10:30:57.301Z,36.57
2018-07-01T10:32:06.822Z,36.67
2018-07-01T10:33:16.623Z,36.67
2018-07-01T10:34:26.700Z,35.71
2018-07-01T10:35:36.243Z,36.48
2018-07-01T10:36:46.085Z,36.09
2018-07-01T10:37:56.156Z,36.87
2018-07-01T10:39:06.268Z,37.37
2018-07-01T10:40:15.979Z,37.17
2018-07-01T10:41:26.017Z,36.01
2018-07-01T10:42:35.607Z,36.98
2018-07-01T10:43:45.408Z,36.88
2018-07-01T10:44:55.208Z,36.4
2018-07-01T10:46:04.752Z,34.66
2018-07-01T10:47:14.281Z,35.24
2018-07-01T10:48:24.412Z,35.64
2018-07-01T10:49:33.949Z,35.34
2018-07-01T10:50:44.039Z,34.48
2018-07-01T10:51:54.139Z,34.2
2018-07-01T10:53:03.689Z,34.29
2018-07-01T10:54:13.332Z,34
2018-07-01T10:55:23.471Z,34.68
2018-07-01T10:56:33.574Z,34.29
2018-07-01T10:57:43.372Z,32.07
2018-07-01T10:58:53.591Z,33.14
2018-07-01T11:00:03.719Z,32.46
2018-07-01T11:01:13.244Z,32.75
2018-07-01T11:02:23.328Z,32.17
2018-07-01T11:03:33.393Z,32.67
2018-07-01T11:04:43.472Z,33.23
2018-07-01T11:05:53.645Z,33.05
2018-07-01T11:07:03.385Z,32.67
2018-07-01T11:08:13.179Z,32.76
2018-07-01T11:09:23.251Z,32.86
2018-07-01T11:10:33.038Z,33.05
2018-07-01T11:11:42.446Z,31.99
2018-07-01T11:12:52.995Z,31.51
2018-07-01T11:14:02.536Z,33.26
2018-07-01T11:15:11.818Z,32.1
2018-07-01T11:16:21.355Z,32.59
2018-07-01T11:17:31.503Z,32.29
2018-07-01T11:18:41.316Z,32.68
2018-07-01T11:19:51.131Z,31.81
2018-07-01T11:21:00.946Z,31.43
2018-07-01T11:22:09.953Z,31.34
2018-07-01T11:23:20.087Z,31.34
2018-07-01T11:24:30.177Z,31.05
2018-07-01T11:25:40.230Z,31.63
2018-07-01T11:26:50.363Z,31.73
2018-07-01T11:28:01.372Z,32.6
2018-07-01T11:29:10.960Z,31.73
2018-07-01T11:30:21.045Z,31.63
2018-07-01T11:31:31.143Z,31.56
2018-07-01T11:32:40.777Z,32.23
2018-07-01T11:33:50.755Z,33.29
2018-07-01T11:35:00.645Z,32.52
2018-07-01T11:36:10.656Z,32.82
2018-07-01T11:37:20.737Z,32.15
2018-07-01T11:38:30.282Z,31.49
2018-07-01T11:39:40.366Z,30.73
2018-07-01T11:40:49.967Z,31.04
2018-07-01T11:42:00.040Z,29.79
2018-07-01T11:43:09.571Z,29.91
2018-07-01T11:44:19.394Z,28.28
2018-07-01T11:45:28.920Z,26.44
2018-07-01T11:46:38.767Z,26.36
2018-07-01T11:47:48.832Z,25.99
2018-07-01T11:48:58.913Z,25.13
2018-07-01T11:50:08.996Z,24.66
2018-07-01T11:51:19.095Z,23.61
2018-07-01T11:52:29.138Z,23.52
2018-07-01T11:53:39.042Z,22.17
2018-07-01T11:54:48.845Z,21.99
2018-07-01T11:55:58.404Z,22.19
2018-07-01T11:57:08.223Z,19.86
2018-07-01T11:58:18.369Z,21.04
2018-07-01T11:59:28.458Z,19.49
2018-07-01T12:00:38.265Z,19.49
2018-07-01T12:01:47.867Z,18.72
2018-07-01T12:02:58.076Z,17.94
2018-07-01T12:04:07.672Z,17.55
2018-07-01T12:05:19.679Z,17.96
2018-07-01T12:06:29.599Z,18.55
2018-07-01T12:07:39.416Z,17.68
2018-07-01T12:08:49.516Z,17.6
2018-07-01T12:09:59.661Z,17.41
2018-07-01T12:11:09.483Z,16.04
2018-07-01T12:12:19.305Z,15.95
2018-07-01T12:13:29.376Z,16.14
2018-07-01T12:14:39.174Z,16.05
2018-07-01T12:15:48.757Z,16.24
2018-07-01T12:16:58.346Z,14.48
2018-07-01T12:18:08.181Z,15.75
2018-07-01T12:19:18.258Z,15.56
2018-07-01T12:20:27.811Z,14.78
2018-07-01T12:21:37.940Z,14.88
2018-07-01T12:22:47.765Z,15.26
2018-07-01T12:23:57.049Z,14.69
2018-07-01T12:25:06.875Z,14
2018-07-01T12:26:16.712Z,14.98
2018-07-01T12:27:26.847Z,14.11
2018-07-01T12:28:36.946Z,14.8
2018-07-01T12:29:47.140Z,14.71
2018-07-01T12:30:57.220Z,13.04
2018-07-01T12:32:06.764Z,13.13
2018-07-01T12:33:16.901Z,13.72
2018-07-01T12:34:26.705Z,13.13
2018-07-01T12:35:36.252Z,13.62
2018-07-01T12:36:46.358Z,13.24
2018-07-01T12:37:56.460Z,13.44
2018-07-01T12:39:06.332Z,12.55
2018-07-01T12:40:16.146Z,13.14
2018-07-01T12:41:25.952Z,13.24
2018-07-01T12:42:35.767Z,12.66
2018-07-01T12:43:45.845Z,12.85
2018-07-01T12:44:55.723Z,11.87
2018-07-01T12:46:05.542Z,11.77
2018-07-01T12:47:15.639Z,12.54
2018-07-01T12:48:25.738Z,11.96
2018-07-01T12:49:35.573Z,12.65
2018-07-01T12:50:45.458Z,12.85
2018-07-01T12:51:55.283Z,12.46
2018-07-01T12:53:05.101Z,12.66
2018-07-01T12:54:14.920Z,11.98
2018-07-01T12:55:25.012Z,11.67
2018-07-01T12:56:35.030Z,11.97
2018-07-01T12:57:45.206Z,12.17
2018-07-01T12:58:55.303Z,12.07
2018-07-01T13:00:05.116Z,11.19
2018-07-01T13:01:15.208Z,11.49
2018-07-01T13:02:25.381Z,11.29
2018-07-01T13:03:35.263Z,11.49
2018-07-01T13:04:45.348Z,11.9
2018-07-01T13:05:55.447Z,10.81
2018-07-01T13:07:05.557Z,10.42
2018-07-01T13:08:15.159Z,11.21
2018-07-01T13:09:25.259Z,10.52
2018-07-01T13:10:35.078Z,10.52
2018-07-01T13:11:44.897Z,10.33
2018-07-01T13:12:54.803Z,10.42
2018-07-01T13:14:04.948Z,9.93
2018-07-01T13:15:15.058Z,10.03
2018-07-01T13:16:25.161Z,9.94
2018-07-01T13:17:35.248Z,10.03
2018-07-01T13:18:45.054Z,9.74
2018-07-01T13:19:55.205Z,9.75
2018-07-01T13:21:05.032Z,9.34
2018-07-01T13:22:14.857Z,9.44
2018-07-01T13:23:24.669Z,9.74
2018-07-01T13:24:34.758Z,9.75
2018-07-01T13:25:44.638Z,9.35
2018-07-01T13:26:54.738Z,8.86
2018-07-01T13:28:04.283Z,9.06
2018-07-01T13:29:14.115Z,8.76
2018-07-01T13:30:23.398Z,8.57
2018-07-01T13:31:33.002Z,8.17
2018-07-01T13:32:43.086Z,8.27
2018-07-01T13:33:53.203Z,8.57
2018-07-01T13:35:03.311Z,8.47
2018-07-01T13:36:13.402Z,8.28
2018-07-01T13:37:23.572Z,7.58
2018-07-01T13:38:33.388Z,7.57
2018-07-01T13:39:42.957Z,8.07
2018-07-01T13:40:53.040Z,7.47
2018-07-01T13:42:02.854Z,7.97
2018-07-01T13:43:12.455Z,7.07
2018-07-01T13:44:22.540Z,7.46
2018-07-01T13:45:32.641Z,7.07
2018-07-01T13:46:42.458Z,7.27
2018-07-01T13:47:51.728Z,7.97
2018-07-01T13:49:01.872Z,6.97
2018-07-01T13:50:11.476Z,7.07
2018-07-01T13:51:21.292Z,7.37
2018-07-01T13:52:31.382Z,7.27
2018-07-01T13:53:41.196Z,7.48
2018-07-01T13:54:51.072Z,7.17
2018-07-01T13:56:01.295Z,6.87
2018-07-01T13:57:11.513Z,6.87
2018-07-01T13:58:21.442Z,7.17
2018-07-01T13:59:31.528Z,6.57
2018-07-01T14:00:41.578Z,6.87
2018-07-01T14:01:51.975Z,6.08
2018-07-01T14:03:01.795Z,6.57
2018-07-01T14:04:11.560Z,5.68
2018-07-01T14:05:21.888Z,5.18
2018-07-01T14:06:32.190Z,6.07
2018-07-01T14:07:42.221Z,6.17
2018-07-01T14:08:52.031Z,6.38
2018-07-01T14:10:02.125Z,5.78
2018-07-01T14:11:12.240Z,6.57
2018-07-01T14:12:22.386Z,6.38
2018-07-01T14:13:32.508Z,6.08
2018-07-01T14:14:42.609Z,6.18
2018-07-01T14:15:52.434Z,6.08
2018-07-01T14:17:02.550Z,6.37
2018-07-01T14:18:12.149Z,6.37
2018-07-01T14:19:21.436Z,5.67
2018-07-01T14:20:31.531Z,6.16
2018-07-01T14:21:41.615Z,5.67
2018-07-01T14:22:51.414Z,5.97
2018-07-01T14:24:01.554Z,6.16
2018-07-01T14:25:11.107Z,6.17
2018-07-01T14:26:20.939Z,5.38
2018-07-01T14:27:30.755Z,5.18
2018-07-01T14:28:40.852Z,5.27
2018-07-01T14:29:51.189Z,5.28
2018-07-01T14:31:00.737Z,5.48
2018-07-01T14:32:10.290Z,5.38
2018-07-01T14:33:20.119Z,5.38
2018-07-01T14:34:29.960Z,5.38
2018-07-01T14:35:40.262Z,5.98
2018-07-01T14:36:49.885Z,5.28
2018-07-01T14:37:59.699Z,5.48
2018-07-01T14:39:08.984Z,5.18
2018-07-01T14:40:19.079Z,5.28
2018-07-01T14:41:29.232Z,5.48
2018-07-01T14:42:39.305Z,5.08
2018-07-01T14:43:49.403Z,5.48
2018-07-01T14:44:59.481Z,4.69
2018-07-01T14:46:09.297Z,4.98
2018-07-01T14:47:18.904Z,4.88
2018-07-01T14:48:28.990Z,4.88
2018-07-01T14:49:39.080Z,4.68
2018-07-01T14:50:49.199Z,4.79
2018-07-01T14:51:59.325Z,4.38
2018-07-01T14:53:09.193Z,4.58
2018-07-01T14:54:18.752Z,5.08
2018-07-01T14:55:28.300Z,3.99
2018-07-01T14:56:38.394Z,4.39
2018-07-01T14:57:47.950Z,4.58
2018-07-01T14:58:58.086Z,4.09
2018-07-01T15:00:08.203Z,3.99
2018-07-01T15:01:18.086Z,4.09
2018-07-01T15:02:28.164Z,3.59
2018-07-01T15:03:37.968Z,3.79
2018-07-01T15:04:47.844Z,3.99
2018-07-01T15:05:57.944Z,4.19
2018-07-01T15:07:07.492Z,3.89
2018-07-01T15:08:17.592Z,3.39
2018-07-01T15:09:27.699Z,4.59
2018-07-01T15:10:37.298Z,3.99
2018-07-01T15:11:47.113Z,3.59
2018-07-01T15:12:57.211Z,3.89